sensor_id;sensor_type;location;lat;lon;timestamp;P1;durP1;ratioP1;P2;durP2;ratioP2
44893;SDS011;30625;52.206;21.030;2023-04-24T00:00:09;10.80;;;6.90;;
44893;SDS011;30625;52.206;21.030;2023-04-24T00:02:43;12.35;;;6.90;;
44893;SDS011;30625;52.206;21.030;2023-04-24T00:05:12;10.30;;;5.90;;
44893;SDS011;30625;52.206;21.030;2023-04-24T00:07:51;14.45;;;6.47;;
44893;SDS011;30625;52.206;21.030;2023-04-24T00:10:20;13.88;;;6.47;;
44893;SDS011;30625;52.206;21.030;2023-04-24T00:15:41;11.50;;;6.15;;
44893;SDS011;30625;52.206;21.030;2023-04-24T00:18:31;18.90;;;7.20;;
44893;SDS011;30625;52.206;21.030;2023-04-24T00:21:01;15.35;;;6.57;;
44893;SDS011;30625;52.206;21.030;2023-04-24T00:23:32;12.07;;;6.15;;
44893;SDS011;30625;52.206;21.030;2023-04-24T00:26:18;9.93;;;6.53;;
44893;SDS011;30625;52.206;21.030;2023-04-24T00:28:56;12.55;;;6.90;;
44893;SDS011;30625;52.206;21.030;2023-04-24T00:31:22;14.23;;;6.70;;
44893;SDS011;30625;52.206;21.030;2023-04-24T00:34:12;10.85;;;6.80;;
44893;SDS011;30625;52.206;21.030;2023-04-24T00:36:55;12.63;;;6.53;;
44893;SDS011;30625;52.206;21.030;2023-04-24T00:39:24;12.32;;;6.82;;
44893;SDS011;30625;52.206;21.030;2023-04-24T00:42:13;11.60;;;6.68;;
44893;SDS011;30625;52.206;21.030;2023-04-24T00:44:50;12.80;;;6.07;;
44893;SDS011;30625;52.206;21.030;2023-04-24T00:47:23;11.63;;;7.40;;
44893;SDS011;30625;52.206;21.030;2023-04-24T00:50:28;11.55;;;6.70;;
44893;SDS011;30625;52.206;21.030;2023-04-24T00:53:22;11.57;;;6.63;;
44893;SDS011;30625;52.206;21.030;2023-04-24T00:55:55;11.48;;;6.65;;
44893;SDS011;30625;52.206;21.030;2023-04-24T00:58:31;11.55;;;6.80;;
44893;SDS011;30625;52.206;21.030;2023-04-24T01:01:06;12.40;;;6.97;;
44893;SDS011;30625;52.206;21.030;2023-04-24T01:09:40;17.88;;;7.20;;
44893;SDS011;30625;52.206;21.030;2023-04-24T01:12:20;11.90;;;6.65;;
44893;SDS011;30625;52.206;21.030;2023-04-24T01:15:07;14.23;;;6.68;;
44893;SDS011;30625;52.206;21.030;2023-04-24T01:17:54;11.77;;;7.10;;
44893;SDS011;30625;52.206;21.030;2023-04-24T01:20:36;11.55;;;6.75;;
44893;SDS011;30625;52.206;21.030;2023-04-24T01:23:34;14.27;;;6.68;;
44893;SDS011;30625;52.206;21.030;2023-04-24T01:26:10;13.73;;;7.22;;
44893;SDS011;30625;52.206;21.030;2023-04-24T01:28:57;14.15;;;7.25;;
44893;SDS011;30625;52.206;21.030;2023-04-24T01:31:41;11.25;;;7.25;;
44893;SDS011;30625;52.206;21.030;2023-04-24T01:34:58;12.88;;;7.40;;
44893;SDS011;30625;52.206;21.030;2023-04-24T01:43:15;11.77;;;7.23;;
44893;SDS011;30625;52.206;21.030;2023-04-24T01:45:51;13.43;;;7.05;;
44893;SDS011;30625;52.206;21.030;2023-04-24T01:48:44;13.90;;;7.80;;
44893;SDS011;30625;52.206;21.030;2023-04-24T01:51:14;13.93;;;8.13;;
44893;SDS011;30625;52.206;21.030;2023-04-24T01:53:50;16.95;;;7.55;;
44893;SDS011;30625;52.206;21.030;2023-04-24T01:56:23;13.05;;;7.65;;
44893;SDS011;30625;52.206;21.030;2023-04-24T01:59:00;11.70;;;7.70;;
44893;SDS011;30625;52.206;21.030;2023-04-24T02:01:47;12.00;;;7.30;;
44893;SDS011;30625;52.206;21.030;2023-04-24T02:04:13;12.27;;;7.60;;
44893;SDS011;30625;52.206;21.030;2023-04-24T02:06:49;13.90;;;7.97;;
44893;SDS011;30625;52.206;21.030;2023-04-24T02:09:24;12.00;;;7.95;;
44893;SDS011;30625;52.206;21.030;2023-04-24T02:12:04;15.68;;;7.47;;
44893;SDS011;30625;52.206;21.030;2023-04-24T02:14:51;12.15;;;7.15;;
44893;SDS011;30625;52.206;21.030;2023-04-24T02:17:40;14.10;;;7.72;;
44893;SDS011;30625;52.206;21.030;2023-04-24T02:20:23;16.98;;;8.35;;
44893;SDS011;30625;52.206;21.030;2023-04-24T02:23:00;14.60;;;7.47;;
44893;SDS011;30625;52.206;21.030;2023-04-24T02:25:27;12.32;;;7.47;;
44893;SDS011;30625;52.206;21.030;2023-04-24T02:30:51;14.23;;;7.88;;
44893;SDS011;30625;52.206;21.030;2023-04-24T02:33:32;13.25;;;8.30;;
44893;SDS011;30625;52.206;21.030;2023-04-24T02:36:09;13.63;;;8.38;;
44893;SDS011;30625;52.206;21.030;2023-04-24T02:38:56;13.90;;;7.43;;
44893;SDS011;30625;52.206;21.030;2023-04-24T02:41:38;13.38;;;8.10;;
44893;SDS011;30625;52.206;21.030;2023-04-24T02:44:19;13.07;;;7.45;;
44893;SDS011;30625;52.206;21.030;2023-04-24T02:47:05;13.20;;;7.15;;
44893;SDS011;30625;52.206;21.030;2023-04-24T02:49:50;15.35;;;8.00;;
44893;SDS011;30625;52.206;21.030;2023-04-24T02:52:37;12.97;;;7.43;;
44893;SDS011;30625;52.206;21.030;2023-04-24T02:55:22;14.05;;;8.45;;
44893;SDS011;30625;52.206;21.030;2023-04-24T02:57:50;15.38;;;8.30;;
44893;SDS011;30625;52.206;21.030;2023-04-24T03:00:28;19.85;;;8.18;;
44893;SDS011;30625;52.206;21.030;2023-04-24T03:03:23;13.80;;;7.97;;
44893;SDS011;30625;52.206;21.030;2023-04-24T03:06:05;17.42;;;8.35;;
44893;SDS011;30625;52.206;21.030;2023-04-24T03:08:49;13.13;;;8.15;;
44893;SDS011;30625;52.206;21.030;2023-04-24T03:11:39;13.95;;;8.60;;
44893;SDS011;30625;52.206;21.030;2023-04-24T03:14:08;14.75;;;7.78;;
44893;SDS011;30625;52.206;21.030;2023-04-24T03:19:22;13.48;;;8.27;;
44893;SDS011;30625;52.206;21.030;2023-04-24T03:22:11;17.20;;;8.80;;
44893;SDS011;30625;52.206;21.030;2023-04-24T03:24:55;14.43;;;7.80;;
44893;SDS011;30625;52.206;21.030;2023-04-24T03:30:17;18.75;;;9.88;;
44893;SDS011;30625;52.206;21.030;2023-04-24T03:32:53;15.98;;;9.00;;
44893;SDS011;30625;52.206;21.030;2023-04-24T03:35:32;18.02;;;9.13;;
44893;SDS011;30625;52.206;21.030;2023-04-24T03:38:01;14.27;;;8.23;;
44893;SDS011;30625;52.206;21.030;2023-04-24T03:40:29;16.02;;;8.77;;
44893;SDS011;30625;52.206;21.030;2023-04-24T03:43:06;15.98;;;8.93;;
44893;SDS011;30625;52.206;21.030;2023-04-24T03:46:10;14.93;;;8.80;;
44893;SDS011;30625;52.206;21.030;2023-04-24T03:48:53;18.17;;;9.30;;
44893;SDS011;30625;52.206;21.030;2023-04-24T03:51:38;15.73;;;8.75;;
44893;SDS011;30625;52.206;21.030;2023-04-24T03:54:10;14.15;;;8.35;;
44893;SDS011;30625;52.206;21.030;2023-04-24T03:56:42;19.00;;;9.60;;
44893;SDS011;30625;52.206;21.030;2023-04-24T03:59:11;16.65;;;9.38;;
44893;SDS011;30625;52.206;21.030;2023-04-24T04:01:40;18.02;;;9.25;;
44893;SDS011;30625;52.206;21.030;2023-04-24T04:04:12;14.35;;;8.50;;
44893;SDS011;30625;52.206;21.030;2023-04-24T04:07:22;15.18;;;9.23;;
44893;SDS011;30625;52.206;21.030;2023-04-24T04:09:51;19.45;;;9.45;;
44893;SDS011;30625;52.206;21.030;2023-04-24T04:12:45;15.38;;;9.25;;
44893;SDS011;30625;52.206;21.030;2023-04-24T04:15:25;20.17;;;9.30;;
44893;SDS011;30625;52.206;21.030;2023-04-24T04:18:06;15.15;;;9.13;;
44893;SDS011;30625;52.206;21.030;2023-04-24T04:23:45;14.98;;;8.80;;
44893;SDS011;30625;52.206;21.030;2023-04-24T04:26:32;19.77;;;9.07;;
44893;SDS011;30625;52.206;21.030;2023-04-24T04:29:26;16.02;;;9.63;;
44893;SDS011;30625;52.206;21.030;2023-04-24T04:31:55;13.60;;;8.35;;
44893;SDS011;30625;52.206;21.030;2023-04-24T04:34:30;14.77;;;9.15;;
44893;SDS011;30625;52.206;21.030;2023-04-24T04:37:14;15.18;;;9.00;;
44893;SDS011;30625;52.206;21.030;2023-04-24T04:39:54;15.15;;;9.32;;
44893;SDS011;30625;52.206;21.030;2023-04-24T04:45:47;15.93;;;9.45;;
44893;SDS011;30625;52.206;21.030;2023-04-24T04:48:30;18.35;;;10.35;;
44893;SDS011;30625;52.206;21.030;2023-04-24T04:56:21;14.57;;;9.00;;
44893;SDS011;30625;52.206;21.030;2023-04-24T04:58:50;15.27;;;9.35;;
44893;SDS011;30625;52.206;21.030;2023-04-24T05:01:32;13.65;;;8.52;;
44893;SDS011;30625;52.206;21.030;2023-04-24T05:04:14;18.98;;;8.52;;
44893;SDS011;30625;52.206;21.030;2023-04-24T05:06:49;15.40;;;8.32;;
44893;SDS011;30625;52.206;21.030;2023-04-24T05:09:22;16.40;;;8.50;;
44893;SDS011;30625;52.206;21.030;2023-04-24T05:14:33;15.57;;;8.60;;
44893;SDS011;30625;52.206;21.030;2023-04-24T05:19:43;13.07;;;7.80;;
44893;SDS011;30625;52.206;21.030;2023-04-24T05:23:04;19.85;;;8.68;;
44893;SDS011;30625;52.206;21.030;2023-04-24T05:25:51;13.70;;;8.50;;
44893;SDS011;30625;52.206;21.030;2023-04-24T05:29:09;14.98;;;7.53;;
44893;SDS011;30625;52.206;21.030;2023-04-24T05:32:17;18.02;;;8.05;;
44893;SDS011;30625;52.206;21.030;2023-04-24T05:34:57;16.50;;;7.82;;
44893;SDS011;30625;52.206;21.030;2023-04-24T05:37:46;13.70;;;8.10;;
44893;SDS011;30625;52.206;21.030;2023-04-24T05:40:32;13.20;;;7.75;;
44893;SDS011;30625;52.206;21.030;2023-04-24T05:43:25;11.85;;;7.75;;
44893;SDS011;30625;52.206;21.030;2023-04-24T05:45:54;14.85;;;8.60;;
44893;SDS011;30625;52.206;21.030;2023-04-24T05:48:25;13.10;;;8.25;;
44893;SDS011;30625;52.206;21.030;2023-04-24T05:51:00;15.60;;;8.57;;
44893;SDS011;30625;52.206;21.030;2023-04-24T05:53:38;18.27;;;8.88;;
44893;SDS011;30625;52.206;21.030;2023-04-24T05:56:18;14.75;;;7.93;;
44893;SDS011;30625;52.206;21.030;2023-04-24T05:59:22;17.45;;;8.60;;
44893;SDS011;30625;52.206;21.030;2023-04-24T06:01:49;15.25;;;7.75;;
44893;SDS011;30625;52.206;21.030;2023-04-24T06:04:41;15.55;;;7.80;;
44893;SDS011;30625;52.206;21.030;2023-04-24T06:07:27;14.48;;;7.72;;
44893;SDS011;30625;52.206;21.030;2023-04-24T06:10:09;15.73;;;9.13;;
44893;SDS011;30625;52.206;21.030;2023-04-24T06:13:02;18.08;;;7.97;;
44893;SDS011;30625;52.206;21.030;2023-04-24T06:15:52;15.32;;;8.15;;
44893;SDS011;30625;52.206;21.030;2023-04-24T06:18:24;15.18;;;8.52;;
44893;SDS011;30625;52.206;21.030;2023-04-24T06:21:09;12.55;;;7.13;;
44893;SDS011;30625;52.206;21.030;2023-04-24T06:23:35;14.68;;;8.15;;
44893;SDS011;30625;52.206;21.030;2023-04-24T06:26:07;14.73;;;8.32;;
44893;SDS011;30625;52.206;21.030;2023-04-24T06:28:38;14.93;;;7.40;;
44893;SDS011;30625;52.206;21.030;2023-04-24T06:31:10;9.73;;;7.18;;
44893;SDS011;30625;52.206;21.030;2023-04-24T06:33:39;12.45;;;7.70;;
44893;SDS011;30625;52.206;21.030;2023-04-24T06:36:14;15.23;;;7.93;;
44893;SDS011;30625;52.206;21.030;2023-04-24T06:38:50;14.35;;;7.63;;
44893;SDS011;30625;52.206;21.030;2023-04-24T06:41:33;12.10;;;7.25;;
44893;SDS011;30625;52.206;21.030;2023-04-24T06:44:24;18.75;;;8.30;;
44893;SDS011;30625;52.206;21.030;2023-04-24T06:47:08;17.40;;;8.35;;
44893;SDS011;30625;52.206;21.030;2023-04-24T06:50:05;14.43;;;7.88;;
44893;SDS011;30625;52.206;21.030;2023-04-24T06:53:04;14.63;;;7.85;;
44893;SDS011;30625;52.206;21.030;2023-04-24T06:55:42;15.75;;;7.57;;
44893;SDS011;30625;52.206;21.030;2023-04-24T06:58:15;12.63;;;7.93;;
44893;SDS011;30625;52.206;21.030;2023-04-24T07:00:50;14.63;;;7.65;;
44893;SDS011;30625;52.206;21.030;2023-04-24T07:03:24;14.05;;;8.25;;
44893;SDS011;30625;52.206;21.030;2023-04-24T07:05:53;13.90;;;7.47;;
44893;SDS011;30625;52.206;21.030;2023-04-24T07:11:21;11.73;;;7.70;;
44893;SDS011;30625;52.206;21.030;2023-04-24T07:13:57;17.88;;;8.07;;
44893;SDS011;30625;52.206;21.030;2023-04-24T07:16:26;16.08;;;7.50;;
44893;SDS011;30625;52.206;21.030;2023-04-24T07:18:55;11.88;;;7.78;;
44893;SDS011;30625;52.206;21.030;2023-04-24T07:21:50;15.70;;;8.40;;
44893;SDS011;30625;52.206;21.030;2023-04-24T07:28:36;13.40;;;7.63;;
44893;SDS011;30625;52.206;21.030;2023-04-24T07:38:05;14.35;;;8.10;;
44893;SDS011;30625;52.206;21.030;2023-04-24T07:47:28;17.75;;;8.02;;
44893;SDS011;30625;52.206;21.030;2023-04-24T07:53:44;15.60;;;7.75;;
44893;SDS011;30625;52.206;21.030;2023-04-24T08:59:32;13.52;;;7.00;;
44893;SDS011;30625;52.206;21.030;2023-04-24T09:12:54;18.40;;;7.10;;
44893;SDS011;30625;52.206;21.030;2023-04-24T09:15:49;16.25;;;6.95;;
44893;SDS011;30625;52.206;21.030;2023-04-24T09:18:27;11.70;;;6.35;;
44893;SDS011;30625;52.206;21.030;2023-04-24T09:21:36;14.50;;;6.95;;
44893;SDS011;30625;52.206;21.030;2023-04-24T09:24:41;20.58;;;6.85;;
44893;SDS011;30625;52.206;21.030;2023-04-24T09:27:50;12.90;;;6.88;;
44893;SDS011;30625;52.206;21.030;2023-04-24T09:30:45;11.75;;;6.53;;
44893;SDS011;30625;52.206;21.030;2023-04-24T09:37:02;12.70;;;6.78;;
44893;SDS011;30625;52.206;21.030;2023-04-24T11:29:08;18.13;;;4.82;;
44893;SDS011;30625;52.206;21.030;2023-04-24T11:37:50;7.07;;;3.70;;
44893;SDS011;30625;52.206;21.030;2023-04-24T11:44:10;8.30;;;4.25;;
44893;SDS011;30625;52.206;21.030;2023-04-24T11:53:36;8.60;;;3.88;;
44893;SDS011;30625;52.206;21.030;2023-04-24T11:56:12;6.32;;;4.07;;
44893;SDS011;30625;52.206;21.030;2023-04-24T11:59:08;8.57;;;4.28;;
44893;SDS011;30625;52.206;21.030;2023-04-24T12:01:42;13.45;;;4.88;;
44893;SDS011;30625;52.206;21.030;2023-04-24T12:06:37;7.95;;;4.05;;
44893;SDS011;30625;52.206;21.030;2023-04-24T12:11:29;7.97;;;4.50;;
44893;SDS011;30625;52.206;21.030;2023-04-24T12:16:20;9.35;;;4.70;;
44893;SDS011;30625;52.206;21.030;2023-04-24T12:21:19;9.73;;;5.03;;
44893;SDS011;30625;52.206;21.030;2023-04-24T12:23:46;8.38;;;4.35;;
44893;SDS011;30625;52.206;21.030;2023-04-24T12:28:41;9.13;;;4.70;;
44893;SDS011;30625;52.206;21.030;2023-04-24T12:33:33;12.63;;;5.20;;
44893;SDS011;30625;52.206;21.030;2023-04-24T12:36:00;7.85;;;4.90;;
44893;SDS011;30625;52.206;21.030;2023-04-24T12:41:02;9.07;;;5.10;;
44893;SDS011;30625;52.206;21.030;2023-04-24T12:43:29;8.98;;;4.57;;
44893;SDS011;30625;52.206;21.030;2023-04-24T12:48:20;18.08;;;4.57;;
44893;SDS011;30625;52.206;21.030;2023-04-24T12:50:47;41.25;;;5.65;;
44893;SDS011;30625;52.206;21.030;2023-04-24T12:53:13;24.20;;;5.47;;
44893;SDS011;30625;52.206;21.030;2023-04-24T12:55:40;14.98;;;3.75;;
44893;SDS011;30625;52.206;21.030;2023-04-24T12:58:05;19.13;;;3.15;;
44893;SDS011;30625;52.206;21.030;2023-04-24T13:05:23;18.70;;;3.25;;
44893;SDS011;30625;52.206;21.030;2023-04-24T13:10:14;11.02;;;3.03;;
44893;SDS011;30625;52.206;21.030;2023-04-24T13:17:32;10.13;;;3.08;;
44893;SDS011;30625;52.206;21.030;2023-04-24T13:22:23;9.15;;;2.55;;
44893;SDS011;30625;52.206;21.030;2023-04-24T13:27:15;10.07;;;3.10;;
44893;SDS011;30625;52.206;21.030;2023-04-24T13:29:41;11.75;;;3.00;;
44893;SDS011;30625;52.206;21.030;2023-04-24T13:32:07;7.63;;;3.05;;
44893;SDS011;30625;52.206;21.030;2023-04-24T13:34:33;8.25;;;2.70;;
44893;SDS011;30625;52.206;21.030;2023-04-24T13:39:25;9.23;;;2.80;;
44893;SDS011;30625;52.206;21.030;2023-04-24T13:41:52;11.38;;;3.25;;
44893;SDS011;30625;52.206;21.030;2023-04-24T13:44:21;9.73;;;2.95;;
44893;SDS011;30625;52.206;21.030;2023-04-24T13:46:48;7.97;;;3.50;;
44893;SDS011;30625;52.206;21.030;2023-04-24T13:49:17;5.68;;;2.97;;
44893;SDS011;30625;52.206;21.030;2023-04-24T13:51:44;6.47;;;2.67;;
44893;SDS011;30625;52.206;21.030;2023-04-24T13:54:10;7.10;;;2.97;;
44893;SDS011;30625;52.206;21.030;2023-04-24T13:56:36;5.50;;;2.50;;
44893;SDS011;30625;52.206;21.030;2023-04-24T13:59:03;4.00;;;2.30;;
44893;SDS011;30625;52.206;21.030;2023-04-24T14:01:29;6.68;;;3.28;;
44893;SDS011;30625;52.206;21.030;2023-04-24T14:06:20;5.95;;;2.83;;
44893;SDS011;30625;52.206;21.030;2023-04-24T14:08:47;6.82;;;2.80;;
44893;SDS011;30625;52.206;21.030;2023-04-24T14:11:13;9.65;;;2.95;;
44893;SDS011;30625;52.206;21.030;2023-04-24T14:13:40;8.98;;;3.25;;
44893;SDS011;30625;52.206;21.030;2023-04-24T14:16:06;5.63;;;2.92;;
44893;SDS011;30625;52.206;21.030;2023-04-24T14:18:32;5.53;;;2.83;;
44893;SDS011;30625;52.206;21.030;2023-04-24T14:23:26;6.70;;;2.83;;
44893;SDS011;30625;52.206;21.030;2023-04-24T14:25:51;9.07;;;2.80;;
44893;SDS011;30625;52.206;21.030;2023-04-24T14:30:45;6.15;;;2.55;;
44893;SDS011;30625;52.206;21.030;2023-04-24T14:33:11;10.38;;;3.42;;
44893;SDS011;30625;52.206;21.030;2023-04-24T14:35:37;5.40;;;2.60;;
44893;SDS011;30625;52.206;21.030;2023-04-24T14:38:03;10.13;;;3.28;;
44893;SDS011;30625;52.206;21.030;2023-04-24T14:40:29;8.05;;;2.70;;
44893;SDS011;30625;52.206;21.030;2023-04-24T14:42:56;4.28;;;2.58;;
44893;SDS011;30625;52.206;21.030;2023-04-24T14:45:22;8.43;;;2.83;;
44893;SDS011;30625;52.206;21.030;2023-04-24T14:47:49;5.00;;;2.80;;
44893;SDS011;30625;52.206;21.030;2023-04-24T14:50:14;9.23;;;3.10;;
44893;SDS011;30625;52.206;21.030;2023-04-24T14:52:40;5.53;;;2.88;;
44893;SDS011;30625;52.206;21.030;2023-04-24T14:55:06;9.05;;;3.28;;
44893;SDS011;30625;52.206;21.030;2023-04-24T14:57:33;5.97;;;2.92;;
44893;SDS011;30625;52.206;21.030;2023-04-24T14:59:59;5.57;;;2.63;;
44893;SDS011;30625;52.206;21.030;2023-04-24T15:02:25;4.75;;;2.90;;
44893;SDS011;30625;52.206;21.030;2023-04-24T15:04:50;6.18;;;3.40;;
44893;SDS011;30625;52.206;21.030;2023-04-24T15:07:16;7.63;;;3.55;;
44893;SDS011;30625;52.206;21.030;2023-04-24T15:09:42;7.82;;;3.30;;
44893;SDS011;30625;52.206;21.030;2023-04-24T15:12:08;7.57;;;3.13;;
44893;SDS011;30625;52.206;21.030;2023-04-24T15:14:57;8.65;;;3.67;;
44893;SDS011;30625;52.206;21.030;2023-04-24T15:17:26;10.18;;;3.10;;
44893;SDS011;30625;52.206;21.030;2023-04-24T15:19:55;6.00;;;3.15;;
44893;SDS011;30625;52.206;21.030;2023-04-24T15:22:33;9.88;;;3.80;;
44893;SDS011;30625;52.206;21.030;2023-04-24T15:46:03;11.43;;;3.47;;
44893;SDS011;30625;52.206;21.030;2023-04-24T15:48:41;6.60;;;3.25;;
44893;SDS011;30625;52.206;21.030;2023-04-24T15:51:08;5.07;;;2.65;;
44893;SDS011;30625;52.206;21.030;2023-04-24T15:53:38;6.28;;;3.45;;
44893;SDS011;30625;52.206;21.030;2023-04-24T15:56:15;10.95;;;3.75;;
44893;SDS011;30625;52.206;21.030;2023-04-24T16:02:18;8.32;;;3.55;;
44893;SDS011;30625;52.206;21.030;2023-04-24T16:05:29;12.95;;;3.50;;
44893;SDS011;30625;52.206;21.030;2023-04-24T16:20:53;8.95;;;3.95;;
44893;SDS011;30625;52.206;21.030;2023-04-24T16:27:14;12.75;;;3.55;;
44893;SDS011;30625;52.206;21.030;2023-04-24T16:32:54;11.73;;;4.03;;
44893;SDS011;30625;52.206;21.030;2023-04-24T16:43:43;7.47;;;3.50;;
44893;SDS011;30625;52.206;21.030;2023-04-24T16:46:20;14.50;;;3.78;;
44893;SDS011;30625;52.206;21.030;2023-04-24T16:49:14;8.93;;;3.55;;
44893;SDS011;30625;52.206;21.030;2023-04-24T16:51:57;6.50;;;3.25;;
44893;SDS011;30625;52.206;21.030;2023-04-24T16:54:39;8.30;;;3.53;;
44893;SDS011;30625;52.206;21.030;2023-04-24T16:59:47;13.20;;;3.50;;
44893;SDS011;30625;52.206;21.030;2023-04-24T17:02:14;9.20;;;3.15;;
44893;SDS011;30625;52.206;21.030;2023-04-24T17:04:55;9.77;;;4.35;;
44893;SDS011;30625;52.206;21.030;2023-04-24T17:07:45;9.70;;;3.80;;
44893;SDS011;30625;52.206;21.030;2023-04-24T17:10:35;9.70;;;3.38;;
44893;SDS011;30625;52.206;21.030;2023-04-24T17:13:25;10.20;;;3.80;;
44893;SDS011;30625;52.206;21.030;2023-04-24T17:19:02;10.48;;;4.18;;
44893;SDS011;30625;52.206;21.030;2023-04-24T17:24:39;10.85;;;3.85;;
44893;SDS011;30625;52.206;21.030;2023-04-24T17:35:09;12.10;;;4.47;;
44893;SDS011;30625;52.206;21.030;2023-04-24T17:37:50;10.52;;;3.88;;
44893;SDS011;30625;52.206;21.030;2023-04-24T17:46:09;10.32;;;4.43;;
44893;SDS011;30625;52.206;21.030;2023-04-24T17:49:08;9.65;;;4.00;;
44893;SDS011;30625;52.206;21.030;2023-04-24T17:51:56;14.82;;;5.47;;
44893;SDS011;30625;52.206;21.030;2023-04-24T17:54:48;8.27;;;3.80;;
44893;SDS011;30625;52.206;21.030;2023-04-24T17:57:31;13.77;;;4.70;;
44893;SDS011;30625;52.206;21.030;2023-04-24T18:03:22;15.25;;;4.80;;
44893;SDS011;30625;52.206;21.030;2023-04-24T18:06:14;9.73;;;4.18;;
44893;SDS011;30625;52.206;21.030;2023-04-24T18:08:52;10.90;;;5.53;;
44893;SDS011;30625;52.206;21.030;2023-04-24T18:11:21;12.68;;;4.82;;
44893;SDS011;30625;52.206;21.030;2023-04-24T18:14:04;10.85;;;4.90;;
44893;SDS011;30625;52.206;21.030;2023-04-24T18:16:59;10.02;;;4.65;;
44893;SDS011;30625;52.206;21.030;2023-04-24T18:19:50;19.60;;;5.47;;
44893;SDS011;30625;52.206;21.030;2023-04-24T18:25:04;10.93;;;4.07;;
44893;SDS011;30625;52.206;21.030;2023-04-24T18:28:17;11.98;;;4.95;;
44893;SDS011;30625;52.206;21.030;2023-04-24T18:33:59;11.25;;;6.00;;
44893;SDS011;30625;52.206;21.030;2023-04-24T18:36:44;11.57;;;5.65;;
44893;SDS011;30625;52.206;21.030;2023-04-24T18:39:17;15.27;;;5.40;;
44893;SDS011;30625;52.206;21.030;2023-04-24T18:48:27;10.57;;;5.07;;
44893;SDS011;30625;52.206;21.030;2023-04-24T18:50:55;12.90;;;5.50;;
44893;SDS011;30625;52.206;21.030;2023-04-24T18:53:21;10.77;;;4.80;;
44893;SDS011;30625;52.206;21.030;2023-04-24T18:55:46;15.65;;;4.97;;
44893;SDS011;30625;52.206;21.030;2023-04-24T18:58:12;9.18;;;4.35;;
44893;SDS011;30625;52.206;21.030;2023-04-24T19:00:38;12.35;;;5.00;;
44893;SDS011;30625;52.206;21.030;2023-04-24T19:03:04;7.90;;;4.90;;
44893;SDS011;30625;52.206;21.030;2023-04-24T19:05:32;10.55;;;5.88;;
44893;SDS011;30625;52.206;21.030;2023-04-24T19:08:17;8.27;;;5.10;;
44893;SDS011;30625;52.206;21.030;2023-04-24T19:10:52;12.47;;;5.77;;
44893;SDS011;30625;52.206;21.030;2023-04-24T19:13:32;12.50;;;5.45;;
44893;SDS011;30625;52.206;21.030;2023-04-24T19:16:18;13.50;;;5.93;;
44893;SDS011;30625;52.206;21.030;2023-04-24T19:18:49;13.13;;;6.88;;
44893;SDS011;30625;52.206;21.030;2023-04-24T19:21:15;14.77;;;5.95;;
44893;SDS011;30625;52.206;21.030;2023-04-24T19:23:41;14.57;;;5.72;;
44893;SDS011;30625;52.206;21.030;2023-04-24T19:26:08;13.82;;;5.80;;
44893;SDS011;30625;52.206;21.030;2023-04-24T19:28:35;15.18;;;5.85;;
44893;SDS011;30625;52.206;21.030;2023-04-24T19:31:04;11.27;;;4.95;;
44893;SDS011;30625;52.206;21.030;2023-04-24T19:33:30;11.45;;;5.50;;
44893;SDS011;30625;52.206;21.030;2023-04-24T19:35:56;14.15;;;5.53;;
44893;SDS011;30625;52.206;21.030;2023-04-24T19:38:22;16.05;;;7.18;;
44893;SDS011;30625;52.206;21.030;2023-04-24T19:43:19;10.75;;;5.90;;
44893;SDS011;30625;52.206;21.030;2023-04-24T19:45:45;11.10;;;6.00;;
44893;SDS011;30625;52.206;21.030;2023-04-24T19:48:11;13.90;;;6.20;;
44893;SDS011;30625;52.206;21.030;2023-04-24T19:50:37;11.43;;;5.68;;
44893;SDS011;30625;52.206;21.030;2023-04-24T19:53:03;12.88;;;5.97;;
44893;SDS011;30625;52.206;21.030;2023-04-24T19:55:30;13.35;;;5.72;;
44893;SDS011;30625;52.206;21.030;2023-04-24T19:57:56;8.75;;;5.47;;
44893;SDS011;30625;52.206;21.030;2023-04-24T20:00:22;11.50;;;5.75;;
44893;SDS011;30625;52.206;21.030;2023-04-24T20:03:08;12.30;;;6.10;;
44893;SDS011;30625;52.206;21.030;2023-04-24T20:06:07;9.27;;;5.00;;
44893;SDS011;30625;52.206;21.030;2023-04-24T20:08:26;13.02;;;5.22;;
44893;SDS011;30625;52.206;21.030;2023-04-24T20:10:52;14.48;;;5.70;;
44893;SDS011;30625;52.206;21.030;2023-04-24T20:13:18;9.05;;;5.63;;
44893;SDS011;30625;52.206;21.030;2023-04-24T20:15:44;12.35;;;5.93;;
44893;SDS011;30625;52.206;21.030;2023-04-24T20:18:09;10.25;;;5.85;;
44893;SDS011;30625;52.206;21.030;2023-04-24T20:20:35;20.15;;;5.43;;
44893;SDS011;30625;52.206;21.030;2023-04-24T20:23:02;13.60;;;6.93;;
44893;SDS011;30625;52.206;21.030;2023-04-24T20:25:29;12.05;;;5.97;;
44893;SDS011;30625;52.206;21.030;2023-04-24T20:27:55;13.02;;;5.55;;
44893;SDS011;30625;52.206;21.030;2023-04-24T20:30:21;12.00;;;6.28;;
44893;SDS011;30625;52.206;21.030;2023-04-24T20:32:46;13.57;;;6.35;;
44893;SDS011;30625;52.206;21.030;2023-04-24T20:35:12;9.40;;;5.57;;
44893;SDS011;30625;52.206;21.030;2023-04-24T20:37:38;11.18;;;6.30;;
44893;SDS011;30625;52.206;21.030;2023-04-24T20:40:07;9.48;;;6.22;;
44893;SDS011;30625;52.206;21.030;2023-04-24T20:42:34;13.50;;;6.82;;
44893;SDS011;30625;52.206;21.030;2023-04-24T20:45:01;16.40;;;7.97;;
44893;SDS011;30625;52.206;21.030;2023-04-24T20:47:27;11.07;;;6.70;;
44893;SDS011;30625;52.206;21.030;2023-04-24T20:49:53;12.73;;;7.70;;
44893;SDS011;30625;52.206;21.030;2023-04-24T20:52:19;10.93;;;7.50;;
44893;SDS011;30625;52.206;21.030;2023-04-24T20:57:12;12.93;;;7.07;;
44893;SDS011;30625;52.206;21.030;2023-04-24T21:02:04;12.88;;;7.07;;
44893;SDS011;30625;52.206;21.030;2023-04-24T21:04:29;12.40;;;7.00;;
44893;SDS011;30625;52.206;21.030;2023-04-24T21:07:01;13.57;;;7.22;;
44893;SDS011;30625;52.206;21.030;2023-04-24T21:09:27;13.27;;;6.60;;
44893;SDS011;30625;52.206;21.030;2023-04-24T21:11:53;11.93;;;7.57;;
44893;SDS011;30625;52.206;21.030;2023-04-24T21:14:18;12.00;;;7.28;;
44893;SDS011;30625;52.206;21.030;2023-04-24T21:16:44;11.93;;;7.88;;
44893;SDS011;30625;52.206;21.030;2023-04-24T21:19:10;17.55;;;8.57;;
44893;SDS011;30625;52.206;21.030;2023-04-24T21:21:36;10.57;;;6.70;;
44893;SDS011;30625;52.206;21.030;2023-04-24T21:24:01;13.60;;;7.75;;
44893;SDS011;30625;52.206;21.030;2023-04-24T21:26:28;11.40;;;7.47;;
44893;SDS011;30625;52.206;21.030;2023-04-24T21:28:54;15.68;;;8.70;;
44893;SDS011;30625;52.206;21.030;2023-04-24T21:31:20;12.75;;;7.40;;
44893;SDS011;30625;52.206;21.030;2023-04-24T21:33:45;12.18;;;7.25;;
44893;SDS011;30625;52.206;21.030;2023-04-24T21:36:11;13.60;;;7.53;;
44893;SDS011;30625;52.206;21.030;2023-04-24T21:38:37;11.90;;;7.38;;
44893;SDS011;30625;52.206;21.030;2023-04-24T21:41:04;15.27;;;7.75;;
44893;SDS011;30625;52.206;21.030;2023-04-24T21:43:30;14.07;;;7.85;;
44893;SDS011;30625;52.206;21.030;2023-04-24T21:48:21;13.38;;;7.30;;
44893;SDS011;30625;52.206;21.030;2023-04-24T21:50:54;13.23;;;6.97;;
44893;SDS011;30625;52.206;21.030;2023-04-24T21:53:37;10.40;;;7.20;;
44893;SDS011;30625;52.206;21.030;2023-04-24T21:56:16;11.35;;;7.05;;
44893;SDS011;30625;52.206;21.030;2023-04-24T22:02:02;12.85;;;7.07;;
44893;SDS011;30625;52.206;21.030;2023-04-24T22:05:07;14.00;;;7.55;;
44893;SDS011;30625;52.206;21.030;2023-04-24T22:07:50;13.40;;;7.15;;
44893;SDS011;30625;52.206;21.030;2023-04-24T22:10:58;11.80;;;7.20;;